createdAt,value
2023-03-17T00:00:21.554Z,30.9530
2023-03-17T00:01:23.808Z,30.9730
2023-03-17T00:02:23.888Z,30.9620
2023-03-17T00:03:26.209Z,30.9840
2023-03-17T00:04:28.407Z,30.9990
2023-03-17T00:05:30.674Z,30.9680
2023-03-17T00:06:33.055Z,30.9570
2023-03-17T00:07:35.235Z,30.9510
2023-03-17T00:08:36.421Z,31.0100
2023-03-17T00:09:38.709Z,31.1070
2023-03-17T00:10:38.806Z,31.1750
2023-03-17T00:11:41.108Z,31.2390
2023-03-17T00:12:43.367Z,31.2840
2023-03-17T00:13:45.619Z,31.3120
2023-03-17T00:14:45.723Z,31.3390
2023-03-17T00:15:48.028Z,31.3280
2023-03-17T00:16:50.391Z,31.3430
2023-03-17T00:17:52.524Z,31.3490
2023-03-17T00:18:52.665Z,31.3780
2023-03-17T00:19:54.895Z,31.3520
2023-03-17T00:20:57.136Z,31.3620
2023-03-17T00:21:59.447Z,31.3480
2023-03-17T00:23:01.643Z,31.3490
2023-03-17T00:24:03.925Z,31.3470
2023-03-17T00:25:06.249Z,31.3410
2023-03-17T00:26:08.519Z,31.3360
2023-03-17T00:27:10.890Z,31.3100
2023-03-17T00:28:13.065Z,31.3100
2023-03-17T00:29:15.340Z,31.3160
2023-03-17T00:30:17.607Z,31.3380
2023-03-17T00:31:20.023Z,31.3530
2023-03-17T00:32:22.243Z,31.3590
2023-03-17T00:33:24.382Z,31.3370
2023-03-17T00:34:24.464Z,31.3630
2023-03-17T00:35:26.761Z,31.4000
2023-03-17T00:36:28.980Z,31.4300
2023-03-17T00:37:31.360Z,31.4110
2023-03-17T00:38:31.478Z,31.3480
2023-03-17T00:39:33.755Z,31.3390
2023-03-17T00:40:36.047Z,31.3520
2023-03-17T00:41:38.317Z,31.3520
2023-03-17T00:42:38.557Z,31.3490
2023-03-17T00:43:40.729Z,31.3650
2023-03-17T00:44:43.003Z,31.3740
2023-03-17T00:45:45.294Z,31.3890
2023-03-17T00:46:47.787Z,31.3780
2023-03-17T00:47:49.911Z,31.3600
2023-03-17T00:48:52.179Z,31.3430
2023-03-17T00:49:52.323Z,31.3430
2023-03-17T00:50:54.662Z,31.3680
2023-03-17T00:51:56.955Z,31.3680
2023-03-17T00:52:59.283Z,31.3780
2023-03-17T00:54:01.546Z,31.3630
2023-03-17T00:55:03.780Z,31.3890
2023-03-17T00:56:06.053Z,31.3710
2023-03-17T00:57:06.203Z,31.3650
2023-03-17T00:58:08.495Z,31.3450
2023-03-17T00:59:10.742Z,31.3490
2023-03-17T01:00:13.037Z,31.3390
2023-03-17T01:01:13.291Z,31.3220
2023-03-17T01:02:15.558Z,31.3490
2023-03-17T01:03:17.851Z,31.3320
2023-03-17T01:04:20.034Z,31.3150
2023-03-17T01:05:20.190Z,31.3210
2023-03-17T01:06:22.446Z,31.3210
2023-03-17T01:07:24.757Z,31.3240
2023-03-17T01:08:27.069Z,31.3480
2023-03-17T01:09:29.369Z,31.3800
2023-03-17T01:10:32.147Z,31.3590
2023-03-17T01:11:33.981Z,31.3520
2023-03-17T01:12:36.278Z,31.3750
2023-03-17T01:13:38.714Z,31.3900
2023-03-17T01:14:40.888Z,31.3840
2023-03-17T01:15:41.001Z,31.3840
2023-03-17T01:16:43.373Z,31.3750
2023-03-17T01:17:45.590Z,31.3580
2023-03-17T01:18:47.830Z,31.3580
2023-03-17T01:19:47.952Z,31.3470
2023-03-17T01:20:50.256Z,31.3340
2023-03-17T01:21:52.580Z,31.3610
2023-03-17T01:22:54.890Z,31.3730
2023-03-17T01:23:57.302Z,31.3590
2023-03-17T01:24:59.502Z,31.3640
2023-03-17T01:26:01.835Z,31.3420
2023-03-17T01:27:04.141Z,31.3440
2023-03-17T01:28:06.470Z,31.3330
2023-03-17T01:29:08.899Z,31.3330
2023-03-17T01:30:11.101Z,31.3270
2023-03-17T01:31:13.426Z,31.3370
2023-03-17T01:32:15.744Z,31.3400
2023-03-17T01:33:18.087Z,31.3290
2023-03-17T01:34:20.405Z,31.3400
2023-03-17T01:35:22.660Z,31.3490
2023-03-17T01:36:24.955Z,31.3640
2023-03-17T01:37:27.253Z,31.3550
2023-03-17T01:38:29.577Z,31.3640
2023-03-17T01:39:29.804Z,31.3600
2023-03-17T01:40:32.532Z,31.3330
2023-03-17T01:41:34.283Z,31.3110
2023-03-17T01:42:36.572Z,31.3160
2023-03-17T01:43:38.792Z,31.3130
2023-03-17T01:44:41.151Z,31.3130
2023-03-17T01:45:43.372Z,31.3310
2023-03-17T01:46:43.495Z,31.3430
2023-03-17T01:47:45.870Z,31.3310
2023-03-17T01:48:48.196Z,31.2970
2023-03-17T01:49:50.487Z,31.3020
2023-03-17T01:50:52.849Z,31.2850
2023-03-17T01:51:55.048Z,31.3160
2023-03-17T01:52:57.360Z,31.3160
2023-03-17T01:53:57.523Z,31.3240
2023-03-17T01:54:59.765Z,31.3470
2023-03-17T01:56:02.026Z,31.3240
2023-03-17T01:57:04.371Z,31.3290
2023-03-17T01:58:04.481Z,31.3270
2023-03-17T01:59:06.792Z,31.3020
2023-03-17T02:00:09.197Z,31.3180
2023-03-17T02:01:11.504Z,31.3180
2023-03-17T02:02:13.657Z,31.3390
2023-03-17T02:03:16.302Z,31.2960
2023-03-17T02:04:18.451Z,31.3020
2023-03-17T02:05:18.336Z,31.2800
2023-03-17T02:06:20.585Z,31.2690
2023-03-17T02:07:22.936Z,31.2950
2023-03-17T02:08:25.137Z,31.3170
2023-03-17T02:09:25.295Z,31.3090
2023-03-17T02:10:27.613Z,31.3140
2023-03-17T02:11:29.746Z,31.3320
2023-03-17T02:12:32.045Z,31.3220
2023-03-17T02:13:32.239Z,31.3390
2023-03-17T02:14:34.492Z,31.3210
2023-03-17T02:15:36.870Z,31.3080
2023-03-17T02:16:39.203Z,31.2920
2023-03-17T02:17:39.296Z,31.2710
2023-03-17T02:18:41.458Z,31.2600
2023-03-17T02:19:22.483Z,31.2810
2023-03-17T02:21:22.760Z,31.0600
2023-03-17T02:22:24.954Z,30.9890
2023-03-17T02:23:27.245Z,30.9320
2023-03-17T02:24:29.512Z,30.9150
2023-03-17T02:25:31.828Z,30.9040
2023-03-17T02:26:31.972Z,30.8890
2023-03-17T02:27:34.293Z,30.8890
2023-03-17T02:28:36.576Z,30.8590
2023-03-17T02:29:38.860Z,30.8380
2023-03-17T02:30:41.269Z,30.8440
2023-03-17T02:31:43.490Z,30.8270
2023-03-17T02:32:43.655Z,30.8380
2023-03-17T02:33:45.889Z,30.8220
2023-03-17T02:34:48.177Z,30.8220
2023-03-17T02:35:50.405Z,30.8160
2023-03-17T02:36:52.811Z,30.7860
2023-03-17T02:37:54.997Z,30.7820
2023-03-17T02:38:57.289Z,30.8370
2023-03-17T02:39:57.436Z,30.8200
2023-03-17T02:40:59.689Z,30.8530
2023-03-17T02:42:02.080Z,30.8270
2023-03-17T02:43:04.285Z,30.8270
2023-03-17T02:44:06.563Z,30.8430
2023-03-17T02:45:08.880Z,30.7970
2023-03-17T02:46:11.216Z,30.8190
2023-03-17T02:47:13.450Z,30.8520
2023-03-17T02:48:13.590Z,30.8420
2023-03-17T02:49:15.897Z,30.8050
2023-03-17T02:50:18.231Z,30.8190
2023-03-17T02:51:20.483Z,30.8190
2023-03-17T02:52:22.793Z,30.7730
2023-03-17T02:53:25.038Z,30.7810
2023-03-17T02:54:27.305Z,30.7540
2023-03-17T02:55:29.575Z,30.7970
2023-03-17T02:56:31.809Z,30.7640
2023-03-17T02:57:34.140Z,30.7690
2023-03-17T02:58:36.317Z,30.7520
2023-03-17T02:59:38.598Z,30.7610
2023-03-17T03:00:40.894Z,30.7790
2023-03-17T03:01:43.343Z,30.7790
2023-03-17T03:02:43.432Z,30.7790
2023-03-17T03:03:45.662Z,30.7610
2023-03-17T03:04:48.000Z,30.7790
2023-03-17T03:05:50.333Z,30.7760
2023-03-17T03:06:52.641Z,30.7810
2023-03-17T03:07:55.066Z,30.7870
2023-03-17T03:08:55.146Z,30.8070
2023-03-17T03:09:57.479Z,30.8070
2023-03-17T03:10:59.810Z,30.7850
2023-03-17T03:12:02.140Z,30.7700
2023-03-17T03:13:04.485Z,30.7760
2023-03-17T03:14:04.585Z,30.7650
2023-03-17T03:15:06.856Z,30.7560
2023-03-17T03:16:09.271Z,30.7800
2023-03-17T03:17:11.448Z,30.7650
2023-03-17T03:18:13.794Z,30.7770
2023-03-17T03:19:16.037Z,30.8120
2023-03-17T03:20:18.318Z,30.8030
2023-03-17T03:21:20.605Z,30.7960
2023-03-17T03:22:20.710Z,30.8120
2023-03-17T03:23:23.080Z,30.7900
2023-03-17T03:24:25.237Z,30.7810
2023-03-17T03:25:27.489Z,30.7810
2023-03-17T03:26:29.696Z,30.7750
2023-03-17T03:27:31.931Z,30.7640
2023-03-17T03:28:34.185Z,30.7640
2023-03-17T03:30:30.529Z,30.8260
2023-03-17T03:31:32.559Z,30.7970
2023-03-17T03:32:34.829Z,30.7970
2023-03-17T03:33:37.137Z,30.7590
2023-03-17T03:34:39.348Z,30.7160
2023-03-17T03:35:41.624Z,30.7240
2023-03-17T03:36:43.933Z,30.7390
2023-03-17T03:37:44.062Z,30.7610
2023-03-17T03:38:46.470Z,30.7740
2023-03-17T03:39:48.678Z,30.7340
2023-03-17T03:40:50.984Z,30.7340
2023-03-17T03:41:53.277Z,30.7450
2023-03-17T03:42:55.566Z,30.7560
2023-03-17T03:43:55.758Z,30.7450
2023-03-17T03:44:58.029Z,30.7390
2023-03-17T03:46:00.335Z,30.7290
2023-03-17T03:47:02.657Z,30.7240
2023-03-17T03:48:04.962Z,30.7410
2023-03-17T03:49:07.388Z,30.7230
2023-03-17T03:50:09.591Z,30.7350
2023-03-17T03:51:09.780Z,30.7390
2023-03-17T03:52:12.114Z,30.7560
2023-03-17T03:53:14.410Z,30.7760
2023-03-17T03:54:16.830Z,30.7600
2023-03-17T03:55:16.916Z,30.7280
2023-03-17T03:56:17.090Z,30.7390
2023-03-17T03:57:19.398Z,30.7490
2023-03-17T03:58:21.729Z,30.7490
2023-03-17T03:59:24.157Z,30.7230
2023-03-17T04:00:26.358Z,30.7060
2023-03-17T04:01:28.679Z,30.7060
2023-03-17T04:02:28.858Z,30.7200
2023-03-17T04:03:31.118Z,30.7200
2023-03-17T04:04:33.444Z,30.7350
2023-03-17T04:05:33.560Z,30.7510
2023-03-17T04:06:35.886Z,30.7270
2023-03-17T04:07:38.165Z,30.7090
2023-03-17T04:08:38.270Z,30.7140
2023-03-17T04:09:40.577Z,30.7070
2023-03-17T04:10:42.819Z,30.7180
2023-03-17T04:11:45.099Z,30.7350
2023-03-17T04:12:47.347Z,30.7290
2023-03-17T04:13:49.615Z,30.7020
2023-03-17T04:14:51.952Z,30.7140
2023-03-17T04:15:54.120Z,30.7250
2023-03-17T04:16:56.372Z,30.7650
2023-03-17T04:17:56.477Z,30.8020
2023-03-17T04:18:58.806Z,30.8170
2023-03-17T04:20:01.037Z,30.8180
2023-03-17T04:21:03.285Z,30.8220
2023-03-17T04:22:05.606Z,30.8280
2023-03-17T04:23:07.870Z,30.8640
2023-03-17T04:24:10.129Z,30.8620
2023-03-17T04:25:12.500Z,30.8850
2023-03-17T04:26:12.554Z,30.9090
2023-03-17T04:27:14.814Z,30.9630
2023-03-17T04:28:17.109Z,30.9680
2023-03-17T04:29:19.384Z,30.9850
2023-03-17T04:30:21.694Z,31.0080
2023-03-17T04:31:23.987Z,31.0030
2023-03-17T04:32:27.253Z,31.0300
2023-03-17T04:33:26.347Z,31.0670
2023-03-17T04:34:28.618Z,31.0620
2023-03-17T04:35:31.058Z,31.0520
2023-03-17T04:36:33.131Z,31.0360
2023-03-17T04:37:35.371Z,31.0260
2023-03-17T04:38:37.621Z,31.0250
2023-03-17T04:39:39.882Z,30.9930
2023-03-17T04:40:42.142Z,31.0310
2023-03-17T04:41:42.210Z,31.0530
2023-03-17T04:42:44.431Z,31.0980
2023-03-17T04:43:46.581Z,31.1430
2023-03-17T04:44:48.779Z,31.1920
2023-03-17T04:45:51.110Z,31.2250
2023-03-17T04:46:53.201Z,31.2650
2023-03-17T04:47:55.363Z,31.3120
2023-03-17T04:48:57.588Z,31.4060
2023-03-17T04:49:59.837Z,31.5060
2023-03-17T04:51:02.054Z,31.5800
2023-03-17T04:52:04.219Z,31.6590
2023-03-17T04:53:06.490Z,31.6990
2023-03-17T04:54:08.766Z,31.7980
2023-03-17T04:55:11.034Z,31.8340
2023-03-17T04:56:11.193Z,31.8570
2023-03-17T04:57:13.454Z,31.9080
2023-03-17T04:58:30.000Z,31.9450
2023-03-17T04:59:18.019Z,31.9970
2023-03-17T05:01:48.622Z,32.0670
2023-03-17T05:02:50.728Z,32.0520
2023-03-17T05:03:53.026Z,32.0650
2023-03-17T05:04:55.313Z,32.0660
2023-03-17T05:05:57.617Z,32.0700
2023-03-17T05:06:57.780Z,32.0940
2023-03-17T05:08:00.027Z,32.0830
2023-03-17T05:09:02.284Z,32.1340
2023-03-17T05:10:04.620Z,32.1450
2023-03-17T05:11:06.909Z,32.1620
2023-03-17T05:12:09.266Z,32.1990
2023-03-17T05:13:09.403Z,32.2230
2023-03-17T05:14:11.689Z,32.2570
2023-03-17T05:15:13.997Z,32.2910
2023-03-17T05:16:16.398Z,32.3060
2023-03-17T05:17:18.641Z,32.3080
2023-03-17T05:18:20.940Z,32.2910
2023-03-17T05:19:23.247Z,32.3190
2023-03-17T05:20:23.434Z,32.3410
2023-03-17T05:21:25.760Z,32.3710
2023-03-17T05:22:28.208Z,32.3330
2023-03-17T05:23:30.409Z,32.3040
2023-03-17T05:24:32.737Z,32.3040
2023-03-17T05:25:32.920Z,32.3650
2023-03-17T05:26:35.229Z,31.9990
2023-03-17T05:27:37.547Z,31.9820
2023-03-17T05:28:39.870Z,32.0250
2023-03-17T05:29:42.198Z,31.9740
2023-03-17T05:30:44.573Z,31.9810
2023-03-17T05:31:44.704Z,32.0040
2023-03-17T05:32:47.205Z,32.0130
2023-03-17T05:33:49.360Z,31.9390
2023-03-17T05:34:51.700Z,31.9940
2023-03-17T05:35:54.069Z,31.9970
2023-03-17T05:36:54.254Z,31.9730
2023-03-17T05:37:56.590Z,31.8950
2023-03-17T05:38:58.938Z,31.8900
2023-03-17T05:40:01.265Z,31.8870
2023-03-17T05:41:03.584Z,31.8780
2023-03-17T05:42:03.756Z,31.8940
2023-03-17T05:43:06.229Z,31.8940
2023-03-17T05:44:08.494Z,31.9230
2023-03-17T05:45:10.864Z,31.9270
2023-03-17T05:46:13.241Z,32.0080
2023-03-17T05:47:13.426Z,32.0510
2023-03-17T05:48:15.766Z,32.0250
2023-03-17T05:49:18.100Z,32.0120
2023-03-17T05:50:20.452Z,32.0250
2023-03-17T05:51:22.786Z,32.0360
2023-03-17T05:52:22.973Z,32.0470
2023-03-17T05:53:25.380Z,31.6990
2023-03-17T05:54:27.651Z,30.7070
2023-03-17T05:55:30.006Z,30.5920
2023-03-17T05:56:32.376Z,30.0450
2023-03-17T05:57:32.578Z,29.5820
2023-03-17T05:58:35.064Z,29.3450
2023-03-17T05:59:37.373Z,29.1910
2023-03-17T06:00:39.798Z,29.2580
2023-03-17T06:01:40.092Z,29.1820
2023-03-17T06:02:42.559Z,29.1810
2023-03-17T06:03:44.979Z,29.0930
2023-03-17T06:04:47.332Z,29.3290
2023-03-17T06:05:47.605Z,29.5100
2023-03-17T06:06:50.022Z,29.6320
2023-03-17T06:07:56.206Z,29.8450
2023-03-17T06:08:54.958Z,30.5120
2023-03-17T06:09:55.100Z,30.9370
2023-03-17T06:10:57.487Z,30.9370
2023-03-17T06:11:59.895Z,30.8660
2023-03-17T06:13:03.959Z,30.7820
2023-03-17T06:14:04.659Z,30.8120
2023-03-17T06:15:06.997Z,30.7500
2023-03-17T06:16:09.566Z,30.6700
2023-03-17T06:17:09.609Z,30.6870
2023-03-17T06:18:11.984Z,30.6980
2023-03-17T06:19:14.361Z,30.6140
2023-03-17T06:20:16.743Z,30.6400
2023-03-17T06:21:19.090Z,30.6500
2023-03-17T06:22:19.312Z,30.6660
2023-03-17T06:23:21.672Z,30.6860
2023-03-17T06:24:24.077Z,30.6600
2023-03-17T06:25:26.379Z,30.6040
2023-03-17T06:26:28.700Z,30.5700
2023-03-17T06:27:28.923Z,30.5760
2023-03-17T06:28:31.247Z,30.5720
2023-03-17T06:29:33.566Z,30.6050
2023-03-17T06:30:37.486Z,30.6670
2023-03-17T06:31:38.216Z,30.6710
2023-03-17T06:32:38.437Z,30.6710
2023-03-17T06:33:40.701Z,30.6820
2023-03-17T06:34:43.094Z,30.7570
2023-03-17T06:35:45.447Z,30.7710
2023-03-17T06:36:47.811Z,30.7550
2023-03-17T06:37:48.005Z,30.7460
2023-03-17T06:38:50.381Z,30.7250
2023-03-17T06:39:52.858Z,30.7200
2023-03-17T06:40:55.117Z,30.7120
2023-03-17T06:41:57.474Z,30.6890
2023-03-17T06:42:57.709Z,30.6610
2023-03-17T06:44:00.009Z,30.7000
2023-03-17T06:45:02.468Z,30.6800
2023-03-17T06:46:04.761Z,30.7180
2023-03-17T06:47:07.041Z,30.7290
2023-03-17T06:48:07.213Z,30.7190
2023-03-17T06:49:09.584Z,30.7290
2023-03-17T06:50:11.993Z,30.7300
2023-03-17T06:51:14.261Z,30.7410
2023-03-17T06:52:14.435Z,30.7640
2023-03-17T06:53:57.716Z,30.7810
2023-03-17T06:54:59.886Z,30.7560
2023-03-17T06:56:02.076Z,30.7740
2023-03-17T06:57:04.269Z,30.7450
2023-03-17T06:58:06.463Z,30.7450
2023-03-17T06:59:08.687Z,30.7530
2023-03-17T07:00:08.780Z,30.7620
2023-03-17T07:01:11.038Z,30.7800
2023-03-17T07:02:13.182Z,30.8260
2023-03-17T07:03:15.417Z,30.8350
2023-03-17T07:04:17.737Z,30.8530
2023-03-17T07:05:19.957Z,30.9200
2023-03-17T07:06:22.217Z,30.9750
2023-03-17T07:07:24.446Z,30.9810
2023-03-17T07:08:26.727Z,30.9890
2023-03-17T07:09:26.903Z,30.9880
2023-03-17T07:10:29.208Z,31.0150
2023-03-17T07:11:31.568Z,30.9990
2023-03-17T07:12:33.859Z,30.9830
2023-03-17T07:13:36.808Z,30.9780
2023-03-17T07:14:38.349Z,30.9930
2023-03-17T07:15:40.604Z,30.9690
2023-03-17T07:16:42.892Z,30.9580
2023-03-17T07:17:42.976Z,30.9250
2023-03-17T07:18:45.202Z,30.9520
2023-03-17T07:19:47.464Z,30.9580
2023-03-17T07:20:49.754Z,30.9580
2023-03-17T07:21:52.076Z,30.9910
2023-03-17T07:22:54.337Z,30.9790
2023-03-17T07:23:56.638Z,30.9880
2023-03-17T07:24:56.802Z,30.9700
2023-03-17T07:25:59.152Z,30.9990
2023-03-17T07:27:01.530Z,30.9990
2023-03-17T07:28:03.773Z,31.0160
2023-03-17T07:29:06.127Z,30.9980
2023-03-17T07:30:06.231Z,31.0030
2023-03-17T07:31:08.552Z,31.0200
2023-03-17T07:32:10.896Z,30.9940
2023-03-17T07:33:13.235Z,30.9900
2023-03-17T07:34:15.534Z,31.0090
2023-03-17T07:35:15.696Z,31.0250
2023-03-17T07:36:18.057Z,31.0210
2023-03-17T07:37:20.498Z,31.0200
2023-03-17T07:38:22.777Z,31.0270
2023-03-17T07:39:25.088Z,31.0160
2023-03-17T07:40:27.397Z,30.9940
2023-03-17T07:41:27.557Z,30.9860
2023-03-17T07:42:29.929Z,30.9790
2023-03-17T07:43:32.212Z,30.9640
2023-03-17T07:44:34.574Z,30.9830
2023-03-17T07:45:36.852Z,30.9880
2023-03-17T07:46:39.185Z,30.9880
2023-03-17T07:47:39.366Z,30.9880
2023-03-17T07:48:41.584Z,30.9930
2023-03-17T07:49:43.911Z,30.9750
2023-03-17T07:50:46.197Z,30.9940
2023-03-17T07:51:48.491Z,31.0450
2023-03-17T07:52:50.834Z,31.0370
2023-03-17T07:53:50.913Z,31.0460
2023-03-17T07:54:53.152Z,31.0420
2023-03-17T07:55:55.379Z,31.0370
2023-03-17T07:56:57.629Z,31.0410
2023-03-17T07:57:59.980Z,31.0380
2023-03-17T07:59:02.084Z,31.0270
2023-03-17T08:00:04.381Z,31.0310
2023-03-17T08:01:06.617Z,31.0270
2023-03-17T08:02:09.076Z,30.9960
2023-03-17T08:03:11.406Z,30.9850
2023-03-17T08:04:13.521Z,31.0010
2023-03-17T08:05:15.797Z,31.0110
2023-03-17T08:06:18.060Z,30.9930
2023-03-17T08:07:20.354Z,30.9590
2023-03-17T08:08:22.505Z,30.9300
2023-03-17T08:09:24.717Z,30.9310
2023-03-17T08:10:26.999Z,30.9300
2023-03-17T08:11:29.293Z,30.9350
2023-03-17T08:12:29.397Z,30.9350
2023-03-17T08:13:31.694Z,30.9310
2023-03-17T08:14:33.946Z,30.9310
2023-03-17T08:15:36.240Z,30.9370
2023-03-17T08:16:38.576Z,30.9370
2023-03-17T08:17:40.803Z,30.9350
2023-03-17T08:18:43.128Z,30.9370
2023-03-17T08:19:43.216Z,30.9530
2023-03-17T08:20:45.506Z,30.9580
2023-03-17T08:21:47.787Z,30.9160
2023-03-17T08:22:50.097Z,30.9260
2023-03-17T08:23:52.440Z,30.9160
2023-03-17T08:24:54.636Z,30.9070
2023-03-17T08:25:56.899Z,30.9180
2023-03-17T08:27:00.833Z,30.9220
2023-03-17T08:27:59.233Z,30.9260
2023-03-17T08:29:01.582Z,30.9090
2023-03-17T08:30:03.696Z,30.9000
2023-03-17T08:31:06.099Z,30.8710
2023-03-17T08:32:08.212Z,30.8780
2023-03-17T08:33:10.566Z,30.9000
2023-03-17T08:34:12.843Z,30.9220
2023-03-17T08:35:15.042Z,30.9020
2023-03-17T08:36:15.146Z,30.9150
2023-03-17T08:37:17.405Z,30.9270
2023-03-17T08:38:19.657Z,30.9330
2023-03-17T08:39:22.030Z,30.9160
2023-03-17T08:40:24.172Z,30.9390
2023-03-17T08:41:26.428Z,30.9300
2023-03-17T08:42:28.672Z,30.9130
2023-03-17T08:43:30.880Z,30.9580
2023-03-17T08:44:33.220Z,30.9830
2023-03-17T08:45:33.356Z,30.9880
2023-03-17T08:46:35.760Z,30.9840
2023-03-17T08:47:37.859Z,30.9640
2023-03-17T08:48:40.124Z,30.9520
2023-03-17T08:49:42.486Z,30.9160
2023-03-17T08:50:44.763Z,30.9100
2023-03-17T08:51:47.100Z,30.9260
2023-03-17T08:53:36.799Z,30.9950
2023-03-17T08:54:39.030Z,30.9860
2023-03-17T08:55:41.294Z,30.9590
2023-03-17T08:56:41.427Z,30.9430
2023-03-17T08:57:43.728Z,30.9430
2023-03-17T08:58:46.021Z,30.9480
2023-03-17T08:59:48.311Z,30.9160
2023-03-17T09:00:50.597Z,30.9160
2023-03-17T09:01:52.948Z,30.9560
2023-03-17T09:02:55.217Z,30.9410
2023-03-17T09:03:55.377Z,30.9060
2023-03-17T09:04:57.642Z,30.9120
2023-03-17T09:05:59.947Z,30.9120
2023-03-17T09:07:04.196Z,30.9010
2023-03-17T09:08:04.640Z,30.9300
2023-03-17T09:09:06.914Z,30.9060
2023-03-17T09:10:06.989Z,30.9060
2023-03-17T09:11:09.305Z,30.9010
2023-03-17T09:12:11.622Z,30.9090
2023-03-17T09:13:13.974Z,30.8740
2023-03-17T09:14:16.257Z,30.8620
2023-03-17T09:15:18.563Z,30.8680
2023-03-17T09:16:20.939Z,30.8580
2023-03-17T09:17:21.060Z,30.8270
2023-03-17T09:18:23.373Z,30.8050
2023-03-17T09:19:23.536Z,30.7870
2023-03-17T09:20:25.932Z,30.7750
2023-03-17T09:21:28.207Z,30.7600
2023-03-17T09:22:30.482Z,30.7580
2023-03-17T09:23:30.631Z,30.7640
2023-03-17T09:24:32.936Z,30.7650
2023-03-17T09:25:35.219Z,30.7500
2023-03-17T09:26:37.558Z,30.7650
2023-03-17T09:27:39.893Z,30.7650
2023-03-17T09:28:42.259Z,30.7650
2023-03-17T09:29:44.560Z,30.7590
2023-03-17T09:30:46.994Z,30.7240
2023-03-17T09:31:49.239Z,30.7180
2023-03-17T09:32:51.597Z,30.7230
2023-03-17T09:33:51.679Z,30.7350
2023-03-17T09:34:54.001Z,30.6670
2023-03-17T09:35:56.382Z,30.6520
2023-03-17T09:36:58.649Z,30.6440
2023-03-17T09:38:00.954Z,30.6780
2023-03-17T09:39:03.275Z,30.7020
2023-03-17T09:40:03.429Z,30.7240
2023-03-17T09:41:05.734Z,30.7750
2023-03-17T09:42:08.148Z,30.8490
2023-03-17T09:43:10.243Z,30.8740
2023-03-17T09:44:12.505Z,30.8690
2023-03-17T09:45:14.805Z,30.8690
2023-03-17T09:46:17.125Z,30.8540
2023-03-17T09:47:19.411Z,30.8950
2023-03-17T09:48:19.476Z,30.8800
2023-03-17T09:49:21.713Z,31.0110
2023-03-17T09:50:24.033Z,31.0060
2023-03-17T09:51:26.173Z,30.9900
2023-03-17T09:52:28.479Z,31.0110
2023-03-17T09:53:30.740Z,30.9830
2023-03-17T09:54:33.005Z,31.0550
2023-03-17T09:55:35.302Z,31.0730
2023-03-17T09:56:37.531Z,31.0970
2023-03-17T09:57:37.748Z,31.0910
2023-03-17T09:58:39.877Z,31.0830
2023-03-17T09:59:42.241Z,31.0630
2023-03-17T10:00:44.446Z,31.0450
2023-03-17T10:01:47.015Z,30.9930
2023-03-17T10:02:49.107Z,30.9890
2023-03-17T10:03:49.297Z,30.9680
2023-03-17T10:04:51.588Z,30.9670
2023-03-17T10:05:53.885Z,30.9200
2023-03-17T10:06:56.198Z,30.9820
2023-03-17T10:07:58.536Z,30.9670
2023-03-17T10:09:00.836Z,30.8810
2023-03-17T10:10:01.009Z,30.8630
2023-03-17T10:11:03.327Z,30.8700
2023-03-17T10:12:05.624Z,30.9730
2023-03-17T10:13:07.956Z,30.9520
2023-03-17T10:14:10.079Z,30.9580
2023-03-17T10:15:12.334Z,31.0060
2023-03-17T10:16:14.694Z,31.0260
2023-03-17T10:17:16.905Z,31.0210
2023-03-17T10:18:17.137Z,31.1280
2023-03-17T10:19:19.311Z,31.1750
2023-03-17T10:20:21.616Z,31.1830
2023-03-17T10:21:23.881Z,31.0900
2023-03-17T10:22:26.190Z,31.1460
2023-03-17T10:23:28.621Z,31.0910
2023-03-17T10:24:30.736Z,31.0770
2023-03-17T10:25:31.372Z,31.2010
2023-03-17T10:26:33.191Z,31.1660
2023-03-17T10:27:35.423Z,31.1900
2023-03-17T10:28:37.735Z,31.1970
2023-03-17T10:29:39.871Z,31.1830
2023-03-17T10:30:42.118Z,31.1550
2023-03-17T10:31:44.399Z,31.0720
2023-03-17T10:32:46.725Z,31.1270
2023-03-17T10:33:48.931Z,31.0620
2023-03-17T10:34:52.193Z,31.0390
2023-03-17T10:35:53.431Z,31.0720
2023-03-17T10:36:55.640Z,31.0920
2023-03-17T10:38:13.534Z,30.9190
2023-03-17T10:39:00.240Z,30.8880
2023-03-17T10:41:09.034Z,30.9310
2023-03-17T10:42:09.098Z,30.8710
2023-03-17T10:43:11.310Z,30.9470
2023-03-17T10:44:13.618Z,30.8890
2023-03-17T10:45:15.749Z,30.7810
2023-03-17T10:46:18.046Z,30.7190
2023-03-17T10:47:20.254Z,30.6100
2023-03-17T10:48:22.491Z,30.5730
2023-03-17T10:49:24.802Z,30.5000
2023-03-17T10:50:27.100Z,30.4250
2023-03-17T10:51:29.336Z,30.3790
2023-03-17T10:52:29.464Z,30.3970
2023-03-17T10:53:31.766Z,30.4360
2023-03-17T10:54:33.997Z,30.3820
2023-03-17T10:55:36.240Z,30.2820
2023-03-17T10:56:38.525Z,30.2390
2023-03-17T10:57:40.805Z,30.2610
2023-03-17T10:58:43.064Z,30.3040
2023-03-17T10:59:45.305Z,30.3850
2023-03-17T11:00:47.602Z,30.4960
2023-03-17T11:01:47.696Z,30.4640
2023-03-17T11:02:49.938Z,30.4960
2023-03-17T11:03:52.176Z,30.5150
2023-03-17T11:04:54.402Z,30.4370
2023-03-17T11:05:56.633Z,30.3740
2023-03-17T11:06:58.809Z,30.3190
2023-03-17T11:08:00.995Z,30.3250
2023-03-17T11:09:03.243Z,30.3370
2023-03-17T11:10:05.501Z,30.2500
2023-03-17T11:11:07.716Z,30.1980
2023-03-17T11:12:07.761Z,30.1620
2023-03-17T11:13:09.956Z,30.1680
2023-03-17T11:14:12.177Z,30.1860
2023-03-17T11:15:14.534Z,30.1570
2023-03-17T11:16:16.637Z,30.1570
2023-03-17T11:17:18.781Z,30.1420
2023-03-17T11:18:21.005Z,30.2310
2023-03-17T11:19:23.280Z,30.1700
2023-03-17T11:20:25.627Z,30.1590
2023-03-17T11:21:27.821Z,30.1760
2023-03-17T11:22:30.055Z,30.1590
2023-03-17T11:23:30.160Z,30.1880
2023-03-17T11:24:33.537Z,30.1760
2023-03-17T11:25:34.826Z,30.2100
2023-03-17T11:26:37.096Z,30.2470
2023-03-17T11:27:39.411Z,30.2320
2023-03-17T11:28:41.722Z,30.2290
2023-03-17T11:29:41.883Z,30.1850
2023-03-17T11:30:44.237Z,30.2060
2023-03-17T11:31:46.498Z,30.1780
2023-03-17T11:32:48.645Z,30.1780
2023-03-17T11:33:50.809Z,30.1580
2023-03-17T11:34:52.997Z,30.1590
2023-03-17T11:35:55.276Z,30.1690
2023-03-17T11:36:59.695Z,30.1950
2023-03-17T11:37:59.636Z,30.2000
2023-03-17T11:39:01.913Z,30.2000
2023-03-17T11:40:04.238Z,30.2170
2023-03-17T11:41:04.497Z,30.2290
2023-03-17T11:42:06.637Z,30.2460
2023-03-17T11:43:08.921Z,30.2470
2023-03-17T11:44:11.205Z,30.2580
2023-03-17T11:45:13.513Z,30.2870
2023-03-17T11:46:15.977Z,30.2760
2023-03-17T11:47:18.265Z,30.2980
2023-03-17T11:48:20.434Z,30.3070
2023-03-17T11:49:22.701Z,30.3130
2023-03-17T11:50:24.997Z,30.3250
2023-03-17T11:51:27.308Z,30.3250
2023-03-17T11:52:29.628Z,30.3030
2023-03-17T11:53:31.885Z,30.3090
2023-03-17T11:54:32.037Z,30.3250
2023-03-17T11:55:34.338Z,30.3540
2023-03-17T11:56:36.727Z,30.3350
2023-03-17T11:57:38.934Z,30.3090
2023-03-17T11:58:41.229Z,30.2920
2023-03-17T11:59:43.508Z,30.2720
2023-03-17T12:00:45.781Z,30.2600
2023-03-17T12:01:45.923Z,30.3030
2023-03-17T12:02:48.050Z,30.2450
2023-03-17T12:03:50.453Z,30.2500
2023-03-17T12:04:52.473Z,30.3500
2023-03-17T12:05:54.706Z,30.3500
2023-03-17T12:06:57.188Z,30.3410
2023-03-17T12:07:59.180Z,30.3190
2023-03-17T12:09:01.405Z,30.3230
2023-03-17T12:10:03.643Z,30.3180
2023-03-17T12:11:05.886Z,30.3360
2023-03-17T12:12:08.125Z,30.3070
2023-03-17T12:13:10.339Z,30.2710
2023-03-17T12:14:10.393Z,30.2610
2023-03-17T12:15:12.632Z,30.3010
2023-03-17T12:16:14.866Z,30.3220
2023-03-17T12:17:17.184Z,30.3550
2023-03-17T12:18:19.431Z,30.3430
2023-03-17T12:19:21.736Z,30.3070
2023-03-17T12:20:24.031Z,30.2840
2023-03-17T12:21:26.328Z,30.2940
2023-03-17T12:22:26.565Z,30.2940
2023-03-17T12:23:28.719Z,30.2660
2023-03-17T12:24:30.948Z,30.2680
2023-03-17T12:26:29.332Z,30.3020
2023-03-17T12:27:31.420Z,30.2770
2023-03-17T12:28:33.565Z,30.2720
2023-03-17T12:29:35.818Z,30.2830
2023-03-17T12:30:38.067Z,30.2520
2023-03-17T12:31:40.337Z,30.2260
2023-03-17T12:32:42.671Z,30.2450
2023-03-17T12:33:44.890Z,30.2190
2023-03-17T12:34:47.109Z,30.2360
2023-03-17T12:35:49.357Z,30.2420